sensor_id;sensor_type;location;lat;lon;timestamp;temperature;humidity
22676;DHT22;12521;43.310;21.876;2022-09-03T00:04:50;16.0;96.0
22676;DHT22;12521;43.310;21.876;2022-09-03T00:09:56;16.0;96.0
22676;DHT22;12521;43.310;21.876;2022-09-03T00:14:52;16.0;96.0
22676;DHT22;12521;43.310;21.876;2022-09-03T00:19:53;16.0;96.0
22676;DHT22;12521;43.310;21.876;2022-09-03T00:24:52;16.0;96.0
22676;DHT22;12521;43.310;21.876;2022-09-03T00:29:48;16.0;96.0
22676;DHT22;12521;43.310;21.876;2022-09-03T00:34:46;16.0;96.0
22676;DHT22;12521;43.310;21.876;2022-09-03T00:39:42;16.0;96.0
22676;DHT22;12521;43.310;21.876;2022-09-03T00:44:31;16.0;96.0
22676;DHT22;12521;43.310;21.876;2022-09-03T00:50:04;16.0;96.0
22676;DHT22;12521;43.310;21.876;2022-09-03T00:55:48;16.0;96.0
22676;DHT22;12521;43.310;21.876;2022-09-03T01:01:09;16.0;96.0
22676;DHT22;12521;43.310;21.876;2022-09-03T01:06:23;15.9;96.0
22676;DHT22;12521;43.310;21.876;2022-09-03T01:11:40;15.9;96.0
22676;DHT22;12521;43.310;21.876;2022-09-03T01:16:53;15.9;96.0
22676;DHT22;12521;43.310;21.876;2022-09-03T01:22:21;15.9;96.0
22676;DHT22;12521;43.310;21.876;2022-09-03T01:30:19;15.9;96.0
22676;DHT22;12521;43.310;21.876;2022-09-03T01:35:01;16.0;96.0
22676;DHT22;12521;43.310;21.876;2022-09-03T01:40:26;16.0;96.0
22676;DHT22;12521;43.310;21.876;2022-09-03T01:46:07;16.0;96.0
22676;DHT22;12521;43.310;21.876;2022-09-03T01:51:17;16.0;96.0
22676;DHT22;12521;43.310;21.876;2022-09-03T01:56:16;16.0;96.0
22676;DHT22;12521;43.310;21.876;2022-09-03T02:02:25;16.0;96.0
22676;DHT22;12521;43.310;21.876;2022-09-03T02:07:05;16.0;96.0
22676;DHT22;12521;43.310;21.876;2022-09-03T02:11:45;16.0;96.0
22676;DHT22;12521;43.310;21.876;2022-09-03T02:16:54;16.0;96.0
22676;DHT22;12521;43.310;21.876;2022-09-03T02:21:48;16.0;96.0
22676;DHT22;12521;43.310;21.876;2022-09-03T02:26:34;16.0;96.0
22676;DHT22;12521;43.310;21.876;2022-09-03T02:31:12;16.0;96.0
22676;DHT22;12521;43.310;21.876;2022-09-03T02:35:50;16.0;96.0
22676;DHT22;12521;43.310;21.876;2022-09-03T02:40:29;16.0;96.0
22676;DHT22;12521;43.310;21.876;2022-09-03T02:45:12;16.0;96.0
22676;DHT22;12521;43.310;21.876;2022-09-03T02:50:05;16.0;96.0
22676;DHT22;12521;43.310;21.876;2022-09-03T02:54:43;16.0;96.0
22676;DHT22;12521;43.310;21.876;2022-09-03T02:59:20;16.0;96.0
22676;DHT22;12521;43.310;21.876;2022-09-03T03:03:58;16.0;96.0
22676;DHT22;12521;43.310;21.876;2022-09-03T03:08:35;16.0;96.0
22676;DHT22;12521;43.310;21.876;2022-09-03T03:13:12;16.0;96.0
22676;DHT22;12521;43.310;21.876;2022-09-03T03:17:50;16.0;96.0
22676;DHT22;12521;43.310;21.876;2022-09-03T03:22:26;16.0;96.0
22676;DHT22;12521;43.310;21.876;2022-09-03T03:27:03;16.0;96.0
22676;DHT22;12521;43.310;21.876;2022-09-03T03:31:39;16.0;96.0
22676;DHT22;12521;43.310;21.876;2022-09-03T03:36:16;16.0;96.0
22676;DHT22;12521;43.310;21.876;2022-09-03T03:40:58;16.0;96.0
22676;DHT22;12521;43.310;21.876;2022-09-03T03:45:55;16.0;96.0
22676;DHT22;12521;43.310;21.876;2022-09-03T03:50:33;16.0;96.0
22676;DHT22;12521;43.310;21.876;2022-09-03T03:55:11;16.0;96.0
22676;DHT22;12521;43.310;21.876;2022-09-03T03:59:49;16.0;96.0
22676;DHT22;12521;43.310;21.876;2022-09-03T04:04:26;16.0;96.0
22676;DHT22;12521;43.310;21.876;2022-09-03T04:09:03;16.0;96.0
22676;DHT22;12521;43.310;21.876;2022-09-03T04:13:41;16.0;96.0
22676;DHT22;12521;43.310;21.876;2022-09-03T04:18:22;16.0;96.0
22676;DHT22;12521;43.310;21.876;2022-09-03T04:22:59;16.0;96.0
22676;DHT22;12521;43.310;21.876;2022-09-03T04:27:39;16.0;96.0
22676;DHT22;12521;43.310;21.876;2022-09-03T04:32:16;16.0;96.0
22676;DHT22;12521;43.310;21.876;2022-09-03T04:36:53;16.0;96.0
22676;DHT22;12521;43.310;21.876;2022-09-03T04:41:30;16.1;96.0
22676;DHT22;12521;43.310;21.876;2022-09-03T04:46:09;16.1;96.0
22676;DHT22;12521;43.310;21.876;2022-09-03T04:50:50;16.1;96.0
22676;DHT22;12521;43.310;21.876;2022-09-03T04:55:32;16.2;96.0
22676;DHT22;12521;43.310;21.876;2022-09-03T05:00:13;16.2;96.0
22676;DHT22;12521;43.310;21.876;2022-09-03T05:04:52;16.2;96.0
22676;DHT22;12521;43.310;21.876;2022-09-03T05:09:28;16.2;96.0
22676;DHT22;12521;43.310;21.876;2022-09-03T05:14:05;16.2;96.0
22676;DHT22;12521;43.310;21.876;2022-09-03T05:18:43;16.2;96.0
22676;DHT22;12521;43.310;21.876;2022-09-03T05:23:27;16.2;96.0
22676;DHT22;12521;43.310;21.876;2022-09-03T05:28:13;16.2;96.0
22676;DHT22;12521;43.310;21.876;2022-09-03T05:32:49;16.2;96.0
22676;DHT22;12521;43.310;21.876;2022-09-03T05:37:26;16.2;96.0
22676;DHT22;12521;43.310;21.876;2022-09-03T05:42:03;16.3;96.0
22676;DHT22;12521;43.310;21.876;2022-09-03T05:46:40;16.3;96.0
22676;DHT22;12521;43.310;21.876;2022-09-03T05:51:18;16.3;96.0
22676;DHT22;12521;43.310;21.876;2022-09-03T05:55:56;16.4;96.0
22676;DHT22;12521;43.310;21.876;2022-09-03T06:00:41;16.4;96.0
22676;DHT22;12521;43.310;21.876;2022-09-03T06:05:17;16.5;96.0
22676;DHT22;12521;43.310;21.876;2022-09-03T06:09:55;16.5;96.0
22676;DHT22;12521;43.310;21.876;2022-09-03T06:14:32;16.6;96.0
22676;DHT22;12521;43.310;21.876;2022-09-03T06:19:09;16.6;96.0
22676;DHT22;12521;43.310;21.876;2022-09-03T06:23:48;16.7;96.0
22676;DHT22;12521;43.310;21.876;2022-09-03T06:28:33;16.7;96.0
22676;DHT22;12521;43.310;21.876;2022-09-03T06:33:16;16.8;96.0
22676;DHT22;12521;43.310;21.876;2022-09-03T06:37:53;16.8;96.0
22676;DHT22;12521;43.310;21.876;2022-09-03T06:42:30;16.9;96.0
22676;DHT22;12521;43.310;21.876;2022-09-03T06:47:06;16.9;96.0
22676;DHT22;12521;43.310;21.876;2022-09-03T06:51:43;17.0;96.0
22676;DHT22;12521;43.310;21.876;2022-09-03T06:56:21;17.0;96.0
22676;DHT22;12521;43.310;21.876;2022-09-03T07:01:02;17.0;96.0
22676;DHT22;12521;43.310;21.876;2022-09-03T07:05:49;17.1;96.0
22676;DHT22;12521;43.310;21.876;2022-09-03T07:10:26;17.1;96.0
22676;DHT22;12521;43.310;21.876;2022-09-03T07:15:04;17.2;96.0
22676;DHT22;12521;43.310;21.876;2022-09-03T07:19:45;17.2;96.0
22676;DHT22;12521;43.310;21.876;2022-09-03T07:24:23;17.3;96.0
22676;DHT22;12521;43.310;21.876;2022-09-03T07:29:00;17.3;96.0
22676;DHT22;12521;43.310;21.876;2022-09-03T07:33:42;17.3;96.0
22676;DHT22;12521;43.310;21.876;2022-09-03T07:38:20;17.3;96.0
22676;DHT22;12521;43.310;21.876;2022-09-03T07:42:57;17.3;96.0
22676;DHT22;12521;43.310;21.876;2022-09-03T07:47:34;17.3;96.0
22676;DHT22;12521;43.310;21.876;2022-09-03T07:52:12;17.5;96.0
22676;DHT22;12521;43.310;21.876;2022-09-03T07:56:49;17.5;96.0
22676;DHT22;12521;43.310;21.876;2022-09-03T08:01:27;17.5;96.0
22676;DHT22;12521;43.310;21.876;2022-09-03T08:06:13;17.6;96.0
22676;DHT22;12521;43.310;21.876;2022-09-03T08:11:03;17.6;96.0
22676;DHT22;12521;43.310;21.876;2022-09-03T08:15:52;17.7;96.0
22676;DHT22;12521;43.310;21.876;2022-09-03T08:20:31;17.7;96.0
22676;DHT22;12521;43.310;21.876;2022-09-03T08:25:08;17.8;96.0
22676;DHT22;12521;43.310;21.876;2022-09-03T08:29:45;17.8;96.0
22676;DHT22;12521;43.310;21.876;2022-09-03T08:34:22;18.1;96.0
22676;DHT22;12521;43.310;21.876;2022-09-03T08:39:00;18.1;96.0
22676;DHT22;12521;43.310;21.876;2022-09-03T08:43:55;18.4;96.0
22676;DHT22;12521;43.310;21.876;2022-09-03T08:49:04;18.4;96.0
22676;DHT22;12521;43.310;21.876;2022-09-03T08:54:08;18.8;96.0
22676;DHT22;12521;43.310;21.876;2022-09-03T08:58:54;18.8;96.0
22676;DHT22;12521;43.310;21.876;2022-09-03T09:03:40;19.1;96.0
22676;DHT22;12521;43.310;21.876;2022-09-03T09:09:11;19.1;96.0
22676;DHT22;12521;43.310;21.876;2022-09-03T09:14:24;19.2;96.0
22676;DHT22;12521;43.310;21.876;2022-09-03T09:19:39;19.2;96.0
22676;DHT22;12521;43.310;21.876;2022-09-03T09:24:52;19.2;96.0
22676;DHT22;12521;43.310;21.876;2022-09-03T09:29:49;19.2;96.0
22676;DHT22;12521;43.310;21.876;2022-09-03T09:34:36;19.5;96.0
22676;DHT22;12521;43.310;21.876;2022-09-03T09:39:14;19.5;96.0
22676;DHT22;12521;43.310;21.876;2022-09-03T09:43:59;19.9;96.0
22676;DHT22;12521;43.310;21.876;2022-09-03T09:48:46;19.9;96.0
22676;DHT22;12521;43.310;21.876;2022-09-03T09:53:33;20.2;96.0
22676;DHT22;12521;43.310;21.876;2022-09-03T09:58:12;20.2;96.0
22676;DHT22;12521;43.310;21.876;2022-09-03T10:02:50;20.6;96.0
22676;DHT22;12521;43.310;21.876;2022-09-03T10:07:30;20.6;96.0
22676;DHT22;12521;43.310;21.876;2022-09-03T10:12:13;20.8;96.0
22676;DHT22;12521;43.310;21.876;2022-09-03T10:17:22;20.8;96.0
22676;DHT22;12521;43.310;21.876;2022-09-03T10:22:50;20.9;96.0
22676;DHT22;12521;43.310;21.876;2022-09-03T10:27:56;20.9;96.0
22676;DHT22;12521;43.310;21.876;2022-09-03T10:32:42;21.0;96.0
22676;DHT22;12521;43.310;21.876;2022-09-03T10:38:07;21.0;96.0
22676;DHT22;12521;43.310;21.876;2022-09-03T10:43:21;21.2;96.0
22676;DHT22;12521;43.310;21.876;2022-09-03T10:49:36;21.2;96.0
22676;DHT22;12521;43.310;21.876;2022-09-03T10:54:56;21.4;96.0
22676;DHT22;12521;43.310;21.876;2022-09-03T11:00:11;21.4;96.0
22676;DHT22;12521;43.310;21.876;2022-09-03T11:04:59;21.7;96.0
22676;DHT22;12521;43.310;21.876;2022-09-03T11:09:56;21.7;96.0
22676;DHT22;12521;43.310;21.876;2022-09-03T11:15:03;21.8;96.0
22676;DHT22;12521;43.310;21.876;2022-09-03T11:20:10;21.8;96.0
22676;DHT22;12521;43.310;21.876;2022-09-03T11:25:01;21.8;96.0
22676;DHT22;12521;43.310;21.876;2022-09-03T11:29:54;21.8;96.0
22676;DHT22;12521;43.310;21.876;2022-09-03T11:34:50;22.0;96.0
22676;DHT22;12521;43.310;21.876;2022-09-03T11:39:34;22.0;96.0
22676;DHT22;12521;43.310;21.876;2022-09-03T11:44:17;22.2;96.0
22676;DHT22;12521;43.310;21.876;2022-09-03T11:48:56;22.2;96.0
22676;DHT22;12521;43.310;21.876;2022-09-03T11:54:06;22.3;96.0
22676;DHT22;12521;43.310;21.876;2022-09-03T11:59:14;22.3;96.0
22676;DHT22;12521;43.310;21.876;2022-09-03T12:04:04;22.4;96.0
22676;DHT22;12521;43.310;21.876;2022-09-03T12:09:01;22.4;96.0
22676;DHT22;12521;43.310;21.876;2022-09-03T12:14:39;22.5;96.0
22676;DHT22;12521;43.310;21.876;2022-09-03T12:19:51;22.5;96.0
22676;DHT22;12521;43.310;21.876;2022-09-03T12:24:33;22.7;96.0
22676;DHT22;12521;43.310;21.876;2022-09-03T12:29:28;22.7;96.0
22676;DHT22;12521;43.310;21.876;2022-09-03T12:34:10;23.0;96.0
22676;DHT22;12521;43.310;21.876;2022-09-03T12:39:07;23.0;96.0
22676;DHT22;12521;43.310;21.876;2022-09-03T12:43:50;23.4;96.0
22676;DHT22;12521;43.310;21.876;2022-09-03T12:48:34;23.4;96.0
22676;DHT22;12521;43.310;21.876;2022-09-03T12:53:14;23.5;96.0
22676;DHT22;12521;43.310;21.876;2022-09-03T12:58:11;23.5;96.0
22676;DHT22;12521;43.310;21.876;2022-09-03T13:03:18;23.6;96.0
22676;DHT22;12521;43.310;21.876;2022-09-03T13:08:30;23.6;96.0
22676;DHT22;12521;43.310;21.876;2022-09-03T13:13:33;23.6;96.0
22676;DHT22;12521;43.310;21.876;2022-09-03T13:18:21;23.6;96.0
22676;DHT22;12521;43.310;21.876;2022-09-03T13:23:41;23.7;96.0
22676;DHT22;12521;43.310;21.876;2022-09-03T13:29:28;23.7;96.0
22676;DHT22;12521;43.310;21.876;2022-09-03T13:34:41;23.8;96.0
22676;DHT22;12521;43.310;21.876;2022-09-03T13:39:36;23.8;96.0
22676;DHT22;12521;43.310;21.876;2022-09-03T13:44:39;23.9;96.0
22676;DHT22;12521;43.310;21.876;2022-09-03T13:49:38;23.9;96.0
22676;DHT22;12521;43.310;21.876;2022-09-03T13:54:45;23.8;96.0
22676;DHT22;12521;43.310;21.876;2022-09-03T13:59:49;23.8;96.0
22676;DHT22;12521;43.310;21.876;2022-09-03T14:04:49;23.8;96.0
22676;DHT22;12521;43.310;21.876;2022-09-03T14:10:00;23.8;96.0
22676;DHT22;12521;43.310;21.876;2022-09-03T14:15:21;23.9;96.0
22676;DHT22;12521;43.310;21.876;2022-09-03T14:20:26;23.9;96.0
22676;DHT22;12521;43.310;21.876;2022-09-03T14:25:33;24.0;96.0
22676;DHT22;12521;43.310;21.876;2022-09-03T14:30:19;24.0;96.0
22676;DHT22;12521;43.310;21.876;2022-09-03T14:35:46;24.7;96.0
22676;DHT22;12521;43.310;21.876;2022-09-03T14:41:05;24.7;96.0
22676;DHT22;12521;43.310;21.876;2022-09-03T14:47:01;25.4;96.0
22676;DHT22;12521;43.310;21.876;2022-09-03T14:52:52;24.9;96.0
22676;DHT22;12521;43.310;21.876;2022-09-03T14:58:35;24.9;96.0
22676;DHT22;12521;43.310;21.876;2022-09-03T15:04:49;24.4;96.0
22676;DHT22;12521;43.310;21.876;2022-09-03T15:10:35;24.4;96.0
22676;DHT22;12521;43.310;21.876;2022-09-03T15:15:52;24.7;96.0
22676;DHT22;12521;43.310;21.876;2022-09-03T15:21:48;24.7;96.0
22676;DHT22;12521;43.310;21.876;2022-09-03T15:27:52;25.0;96.0
22676;DHT22;12521;43.310;21.876;2022-09-03T15:33:33;25.0;96.0
22676;DHT22;12521;43.310;21.876;2022-09-03T15:39:15;25.0;96.0
22676;DHT22;12521;43.310;21.876;2022-09-03T15:44:18;24.9;96.0
22676;DHT22;12521;43.310;21.876;2022-09-03T15:48:59;24.9;96.0
22676;DHT22;12521;43.310;21.876;2022-09-03T15:54:28;24.6;96.0
22676;DHT22;12521;43.310;21.876;2022-09-03T15:59:50;24.6;96.0
22676;DHT22;12521;43.310;21.876;2022-09-03T16:05:02;24.4;96.0
22676;DHT22;12521;43.310;21.876;2022-09-03T16:10:07;24.4;96.0
22676;DHT22;12521;43.310;21.876;2022-09-03T16:14:57;24.2;96.0
22676;DHT22;12521;43.310;21.876;2022-09-03T16:19:59;24.2;96.0
22676;DHT22;12521;43.310;21.876;2022-09-03T16:25:06;24.1;96.0
22676;DHT22;12521;43.310;21.876;2022-09-03T16:30:08;24.1;96.0
22676;DHT22;12521;43.310;21.876;2022-09-03T16:35:26;23.9;96.0
22676;DHT22;12521;43.310;21.876;2022-09-03T16:40:44;23.9;96.0
22676;DHT22;12521;43.310;21.876;2022-09-03T16:46:05;23.7;96.0
22676;DHT22;12521;43.310;21.876;2022-09-03T16:51:19;23.7;96.0
22676;DHT22;12521;43.310;21.876;2022-09-03T16:56:43;23.2;96.0
22676;DHT22;12521;43.310;21.876;2022-09-03T17:02:27;22.7;96.0
22676;DHT22;12521;43.310;21.876;2022-09-03T17:10:37;22.7;96.0
22676;DHT22;12521;43.310;21.876;2022-09-03T17:15:58;22.3;96.0
22676;DHT22;12521;43.310;21.876;2022-09-03T17:21:21;22.3;96.0
22676;DHT22;12521;43.310;21.876;2022-09-03T17:26:52;21.9;96.0
22676;DHT22;12521;43.310;21.876;2022-09-03T17:32:48;21.4;96.0
22676;DHT22;12521;43.310;21.876;2022-09-03T17:38:35;21.4;96.0
22676;DHT22;12521;43.310;21.876;2022-09-03T17:45:09;21.0;96.0
22676;DHT22;12521;43.310;21.876;2022-09-03T17:50:43;21.0;96.0
22676;DHT22;12521;43.310;21.876;2022-09-03T17:56:08;20.7;96.0
22676;DHT22;12521;43.310;21.876;2022-09-03T18:01:34;20.7;96.0
22676;DHT22;12521;43.310;21.876;2022-09-03T18:07:04;20.4;96.0
22676;DHT22;12521;43.310;21.876;2022-09-03T18:12:31;20.1;96.0
22676;DHT22;12521;43.310;21.876;2022-09-03T18:17:58;20.1;96.0
22676;DHT22;12521;43.310;21.876;2022-09-03T18:23:09;19.8;96.0
22676;DHT22;12521;43.310;21.876;2022-09-03T18:28:37;19.8;96.0
22676;DHT22;12521;43.310;21.876;2022-09-03T18:33:42;19.6;96.0
22676;DHT22;12521;43.310;21.876;2022-09-03T18:38:23;19.6;96.0
22676;DHT22;12521;43.310;21.876;2022-09-03T18:43:16;19.4;96.0
22676;DHT22;12521;43.310;21.876;2022-09-03T18:48:40;19.4;96.0
22676;DHT22;12521;43.310;21.876;2022-09-03T18:54:04;19.2;96.0
22676;DHT22;12521;43.310;21.876;2022-09-03T18:59:44;19.2;96.0
22676;DHT22;12521;43.310;21.876;2022-09-03T19:05:07;19.1;96.0
22676;DHT22;12521;43.310;21.876;2022-09-03T19:10:16;19.1;96.0
22676;DHT22;12521;43.310;21.876;2022-09-03T19:15:26;19.0;96.0
22676;DHT22;12521;43.310;21.876;2022-09-03T19:20:30;19.0;96.0
22676;DHT22;12521;43.310;21.876;2022-09-03T19:25:28;18.8;96.0
22676;DHT22;12521;43.310;21.876;2022-09-03T19:30:09;18.8;96.0
22676;DHT22;12521;43.310;21.876;2022-09-03T19:35:29;18.7;96.0
22676;DHT22;12521;43.310;21.876;2022-09-03T19:40:56;18.7;96.0
22676;DHT22;12521;43.310;21.876;2022-09-03T19:46:09;18.6;96.0
22676;DHT22;12521;43.310;21.876;2022-09-03T19:51:20;18.6;96.0
22676;DHT22;12521;43.310;21.876;2022-09-03T19:56:27;18.6;96.0
22676;DHT22;12521;43.310;21.876;2022-09-03T20:01:04;18.6;96.0
22676;DHT22;12521;43.310;21.876;2022-09-03T20:05:43;18.5;96.0
22676;DHT22;12521;43.310;21.876;2022-09-03T20:10:21;18.5;96.0
22676;DHT22;12521;43.310;21.876;2022-09-03T20:15:03;18.4;96.0
22676;DHT22;12521;43.310;21.876;2022-09-03T20:19:54;18.4;96.0
22676;DHT22;12521;43.310;21.876;2022-09-03T20:25:36;18.2;96.0
22676;DHT22;12521;43.310;21.876;2022-09-03T20:31:30;18.2;96.0
22676;DHT22;12521;43.310;21.876;2022-09-03T20:37:13;18.1;96.0
22676;DHT22;12521;43.310;21.876;2022-09-03T20:42:35;18.0;96.0
22676;DHT22;12521;43.310;21.876;2022-09-03T20:49:04;18.0;96.0
22676;DHT22;12521;43.310;21.876;2022-09-03T20:54:37;17.8;96.0
22676;DHT22;12521;43.310;21.876;2022-09-03T21:00:03;17.8;96.0
22676;DHT22;12521;43.310;21.876;2022-09-03T21:05:02;17.7;96.0
22676;DHT22;12521;43.310;21.876;2022-09-03T21:10:17;17.7;96.0
22676;DHT22;12521;43.310;21.876;2022-09-03T21:15:38;17.5;96.0
22676;DHT22;12521;43.310;21.876;2022-09-03T21:21:10;17.5;96.0
22676;DHT22;12521;43.310;21.876;2022-09-03T21:26:34;17.4;96.0
22676;DHT22;12521;43.310;21.876;2022-09-03T21:31:27;17.4;96.0
22676;DHT22;12521;43.310;21.876;2022-09-03T21:36:28;17.2;96.0
22676;DHT22;12521;43.310;21.876;2022-09-03T21:41:17;17.2;96.0
22676;DHT22;12521;43.310;21.876;2022-09-03T21:46:22;17.1;96.0
22676;DHT22;12521;43.310;21.876;2022-09-03T21:51:21;17.1;96.0
22676;DHT22;12521;43.310;21.876;2022-09-03T21:56:27;17.0;96.0
22676;DHT22;12521;43.310;21.876;2022-09-03T22:01:57;17.0;96.0
22676;DHT22;12521;43.310;21.876;2022-09-03T22:07:06;16.9;96.0
22676;DHT22;12521;43.310;21.876;2022-09-03T22:12:39;16.8;96.0
22676;DHT22;12521;43.310;21.876;2022-09-03T22:18:05;16.8;96.0
22676;DHT22;12521;43.310;21.876;2022-09-03T22:23:08;16.7;96.0
22676;DHT22;12521;43.310;21.876;2022-09-03T22:28:21;16.7;96.0
22676;DHT22;12521;43.310;21.876;2022-09-03T22:33:32;16.6;96.0
22676;DHT22;12521;43.310;21.876;2022-09-03T22:38:58;16.6;96.0
22676;DHT22;12521;43.310;21.876;2022-09-03T22:44:15;16.5;96.0
22676;DHT22;12521;43.310;21.876;2022-09-03T22:49:53;16.5;96.0
22676;DHT22;12521;43.310;21.876;2022-09-03T22:55:10;16.6;96.0
22676;DHT22;12521;43.310;21.876;2022-09-03T23:00:00;16.6;96.0
22676;DHT22;12521;43.310;21.876;2022-09-03T23:04:56;16.6;96.0
22676;DHT22;12521;43.310;21.876;2022-09-03T23:10:29;16.6;96.0
22676;DHT22;12521;43.310;21.876;2022-09-03T23:15:50;16.6;96.0
22676;DHT22;12521;43.310;21.876;2022-09-03T23:21:20;16.6;96.0
22676;DHT22;12521;43.310;21.876;2022-09-03T23:26:27;16.5;96.0
22676;DHT22;12521;43.310;21.876;2022-09-03T23:31:26;16.5;96.0
22676;DHT22;12521;43.310;21.876;2022-09-03T23:36:09;16.4;96.0
22676;DHT22;12521;43.310;21.876;2022-09-03T23:41:58;16.4;96.0
22676;DHT22;12521;43.310;21.876;2022-09-03T23:48:02;16.4;96.0
22676;DHT22;12521;43.310;21.876;2022-09-03T23:53:43;16.4;96.0
22676;DHT22;12521;43.310;21.876;2022-09-03T23:59:18;16.4;96.0
